Mid Ohio Valley Regional Airport Parkersburg US
ICAO: KPKB
IATA: PKB
Category: Medium
Scheduled Services: Yes

Elevation: 858 ft
TransAlt. 18000 ft.

Airport Communications:
ATIS:124.35
INDIANAPOLIS CNTR:125.55
CTAF:123.7
GND:121.7
PARKERSBURG TWR:123.7
UNICOM:122.95

KPKB Zoom In..

If you have problems with the map follow the link
https://www.worldairports.se/pages/airport.php?
ICAO=KPKB

Runways:

(A) RW 03 length 7240 ft width 150 ft
ILS 110.70 / hdg 29

(B) RW 10 length 4002 ft width 150 ft
---- / hdg 102

(C) RW 21 length 7240 ft width 150 ft
---- / hdg 209

(D) RW 28 length 4002 ft width 150 ft
---- / hdg 282

Location; KPKB
Day. 14 / Time. 05.27 Zulu
* Altimeter: 29.72
* Temperature: 06° c. 42.8°f.
* Wind from: 000° Speed 00 kn.
Dewpoint: 05° c.
Visibility: 2 Statute Miles.
Clouds: Scattered 200 ft.
Clouds: Overcast 1100 ft.
Conditions: Light Rain.Conditions: Mist.

KPKB 140527Z AUTO 00000KT 2SM -RA BR SCT002 OVC011 06/05 A2972 RMK AO2 P0004 T00560050


Wind - Calm.

 
 
jpsmedia worldairports.se 2019   terms of use